Saturday, September 22, 2018, 9:13 AM EDT
Back to Local

KACK, Nantucket Memorial Airport

Location: Nantucket, MA, United States Lat: 41.25
Local Time: 9:13 AM EDT (13:13 GMT) Lon: -70.067
Time Zone: US/Eastern Elev: 49 ft

Show me the last for .
Show Decoded

2018-09-22 08:53 METAR KACK 221253Z 26014KT 8SM SCT011 BKN024 22/19 A2998 RMK AO2 SLP153
                 T02220194 =
2018-09-22 07:53 METAR KACK 221153Z 25014G24KT 7SM BKN018 OVC024 22/19 A2997 RMK AO2 SLP148
                 T02170194 10217 20200 53012 =
2018-09-22 06:53 METAR KACK 221053Z 23017KT 9SM OVC022 21/19 A2995 RMK AO2 PK WND 20028/0954
                 SLP140 T02110194 =
2018-09-22 06:24 METAR KACK 221024Z 22017G23KT 9SM BKN016 OVC022 21/19 A2993 RMK AO2 PK WND
                 20028/0954 T02060194 =
2018-09-22 06:17 METAR KACK 221017Z 22018G26KT 9SM BKN014 OVC022 21/19 A2993 RMK AO2 PK WND
                 20028/0954 T02060194 =
2018-09-22 05:53 METAR KACK 220953Z 21019G26KT 7SM FEW017 BKN024 OVC029 21/19 A2993 RMK AO2 PK
                 WND 21026/0923 SLP136 T02060194 =
2018-09-22 05:50 METAR KACK 220950Z AUTO 21020G26KT 7SM BKN024 OVC031 21/19 A2993 RMK AO2 PK WND
                 21026/0923 =
2018-09-22 04:53 METAR KACK 220853Z AUTO 22017G24KT 10SM CLR 20/19 A2993 RMK AO2 PK WND
                 21026/0756 SLP134 T02000189 56021 =
2018-09-22 03:53 METAR KACK 220753Z AUTO 21017KT 10SM FEW110 20/19 A2994 RMK AO2 SLP139 T02000189
                 =
2018-09-22 02:53 METAR KACK 220653Z AUTO 21017G25KT 10SM CLR 20/18 A2996 RMK AO2 SLP145 T02000183
                 =
2018-09-22 01:53 METAR KACK 220553Z AUTO 20015KT 10SM OVC049 20/18 A2999 RMK AO2 SLP155 T02000183
                 10200 20183 58021 =
2018-09-22 01:05 METAR KACK 220505Z AUTO 21016KT 10SM SCT026 OVC049 20/18 A3001 RMK AO2 T02000183
                 =
2018-09-22 00:53 METAR KACK 220453Z AUTO 21016KT 10SM BKN026 OVC050 20/18 A3002 RMK AO2 SLP165
                 T02000183 402000117 =
2018-09-22 00:43 METAR KACK 220443Z AUTO 20016KT 10SM BKN026 OVC050 20/18 A3002 RMK AO2 T02000183
                 =
2018-09-21 23:53 METAR KACK 220353Z AUTO 20013KT 10SM CLR 19/18 A3003 RMK AO2 SLP169 T01940178 =
2018-09-21 22:53 METAR KACK 220253Z AUTO 19012KT 10SM CLR 19/17 A3005 RMK AO2 SLP176 T01940172
                 56015 =
2018-09-21 21:53 METAR KACK 220153Z AUTO 19011KT 10SM SCT050 19/17 A3006 RMK AO2 SLP180 T01890167
                 =
2018-09-21 20:53 METAR KACK 220053Z 20012KT 10SM CLR 18/16 A3008 RMK AO2 SLP185 T01830161 =
2018-09-21 19:53 METAR KACK 212353Z 19010KT 10SM CLR 18/16 A3009 RMK AO2 SLP190 T01830161 10194
                 20178 58020 =
2018-09-21 18:53 METAR KACK 212253Z 19009KT 10SM CLR 18/16 A3011 RMK AO2 SLP197 T01780161 =
2018-09-21 17:53 METAR KACK 212153Z 18011KT 10SM CLR 18/16 A3013 RMK AO2 SLP204 T01780156 =
2018-09-21 16:53 METAR KACK 212053Z 18010KT 10SM CLR 19/15 A3015 RMK AO2 SLP210 T01890150 56020 =
2018-09-21 15:53 METAR KACK 211953Z 17011KT 10SM CLR 19/14 A3017 RMK AO2 SLP216 T01890144 =
2018-09-21 14:53 METAR KACK 211853Z 15010KT 10SM CLR 19/14 A3019 RMK AO2 SLP224 T01890144 =
2018-09-21 13:53 METAR KACK 211753Z 14012KT 10SM CLR 19/14 A3021 RMK AO2 SLP231 T01890139 10194
                 20156 56025 =
2018-09-21 12:53 METAR KACK 211653Z 14012KT 10SM CLR 19/13 A3023 RMK AO2 SLP237 T01890128 =
2018-09-21 11:53 METAR KACK 211553Z 15009KT 10SM CLR 18/12 A3026 RMK AO2 SLP248 T01830122 =
2018-09-21 10:53 METAR KACK 211453Z 12008KT 10SM FEW024 18/12 A3029 RMK AO2 SLP256 T01830117
                 58007 =
2018-09-21 09:53 METAR KACK 211353Z 15006KT 10SM FEW024 18/12 A3031 RMK AO2 SLP262 T01780117 =

Support USWX by starting your Amazon purchase here.